Time;durP1;ratioP1;P1;durP2;ratioP2;P2;SDS_P1;SDS_P2;PMS_P1;PMS_P2;Temp;Humidity;BMP_temperature;BMP_pressure;BME280_temperature;BME280_humidity;BME280_pressure;Samples;Min_cycle;Max_cycle;Signal;HPM_P1;HPM_P2
2022/12/03 00:01:47;;;;;;;166.05;54.72;;;0.10;99.90;;;;;;5059149;28;20472;-79
2022/12/03 00:04:13;;;;;;;144.48;51.60;;;0.10;99.90;;;;;;5062286;28;20028;-79
2022/12/03 00:06:38;;;;;;;173.65;59.22;;;0.10;99.90;;;;;;5067556;28;20384;-79
2022/12/03 00:09:04;;;;;;;162.70;57.17;;;0.10;99.90;;;;;;5067582;28;20024;-78
2022/12/03 00:11:30;;;;;;;154.20;56.55;;;0.10;99.90;;;;;;5066651;28;20021;-79
2022/12/03 00:13:56;;;;;;;152.88;54.00;;;0.10;99.90;;;;;;5063099;28;20036;-79
2022/12/03 00:16:21;;;;;;;171.60;58.58;;;0.10;99.90;;;;;;5066948;28;20016;-79
2022/12/03 00:18:47;;;;;;;156.43;55.50;;;0.00;99.90;;;;;;5060497;28;20033;-79
2022/12/03 00:21:12;;;;;;;162.65;56.33;;;0.00;99.90;;;;;;5053466;28;20033;-79
2022/12/03 00:23:38;;;;;;;157.35;55.40;;;0.00;99.90;;;;;;5058366;28;20028;-79
2022/12/03 00:26:04;;;;;;;170.52;60.42;;;0.10;99.90;;;;;;5056134;28;20041;-78
2022/12/03 00:28:29;;;;;;;165.52;58.92;;;0.00;99.90;;;;;;5053563;28;20048;-79
2022/12/03 00:30:55;;;;;;;175.68;61.45;;;0.00;99.90;;;;;;5062945;28;20111;-78
2022/12/03 00:33:21;;;;;;;153.57;54.75;;;0.00;99.90;;;;;;5064644;28;20016;-79
2022/12/03 00:35:47;;;;;;;183.18;61.05;;;0.00;99.90;;;;;;5069899;28;20481;-79
2022/12/03 00:38:12;;;;;;;175.35;59.50;;;0.10;99.90;;;;;;5065917;28;20489;-79
2022/12/03 00:40:38;;;;;;;168.43;59.00;;;0.00;99.90;;;;;;5053144;28;20020;-78
2022/12/03 00:43:04;;;;;;;160.25;54.88;;;0.10;99.90;;;;;;5057303;28;20111;-79
2022/12/03 00:45:30;;;;;;;137.73;49.92;;;0.00;99.90;;;;;;5065919;28;20555;-79
2022/12/03 00:47:56;;;;;;;154.70;53.17;;;0.00;99.90;;;;;;5062724;28;20025;-79
2022/12/03 00:50:22;;;;;;;147.18;54.10;;;0.00;99.90;;;;;;5066544;28;20037;-78
2022/12/03 00:52:48;;;;;;;157.98;57.85;;;0.00;99.90;;;;;;5059162;28;20020;-79
2022/12/03 00:55:16;;;;;;;155.43;58.60;;;0.00;99.90;;;;;;5058055;28;20044;-78
2022/12/03 00:57:42;;;;;;;156.10;55.45;;;0.00;99.90;;;;;;5063587;28;20020;-78
2022/12/03 01:00:08;;;;;;;161.10;56.08;;;0.00;99.90;;;;;;5057591;28;20063;-79
2022/12/03 01:02:34;;;;;;;151.02;57.05;;;0.00;99.90;;;;;;5059451;28;20048;-79
2022/12/03 01:05:00;;;;;;;155.43;60.38;;;0.00;99.90;;;;;;5065623;28;20133;-79
2022/12/03 01:07:27;;;;;;;162.90;57.72;;;0.00;99.90;;;;;;5062871;28;20040;-78
2022/12/03 01:09:53;;;;;;;165.77;61.22;;;0.00;99.90;;;;;;5056947;28;20051;-79
2022/12/03 01:12:18;;;;;;;144.25;56.83;;;0.00;99.90;;;;;;5059594;28;20029;-78
2022/12/03 01:14:45;;;;;;;159.43;59.13;;;0.00;99.90;;;;;;5061836;28;20545;-78
2022/12/03 01:17:11;;;;;;;137.48;56.10;;;0.00;99.90;;;;;;5064757;28;20351;-78
2022/12/03 01:19:37;;;;;;;156.02;57.97;;;0.00;99.90;;;;;;5062400;28;20027;-79
2022/12/03 01:22:03;;;;;;;152.95;56.95;;;0.00;99.90;;;;;;5057697;28;20024;-78
2022/12/03 01:24:29;;;;;;;153.45;56.85;;;0.00;99.90;;;;;;5065839;28;20039;-79
2022/12/03 01:26:55;;;;;;;146.98;58.50;;;0.00;99.90;;;;;;5062991;28;20103;-79
2022/12/03 01:29:21;;;;;;;146.70;55.80;;;0.00;99.90;;;;;;5054812;28;20048;-79
2022/12/03 01:34:31;;;;;;;144.50;54.92;;;0.00;99.90;;;;;;5062657;28;20023;-78
2022/12/03 01:36:57;;;;;;;143.77;55.80;;;0.00;99.90;;;;;;5067389;28;20028;-79
2022/12/03 01:39:23;;;;;;;134.57;54.60;;;0.00;99.90;;;;;;5065732;28;20025;-78
2022/12/03 01:41:50;;;;;;;140.35;52.45;;;0.00;99.90;;;;;;5064893;28;20020;-78
2022/12/03 01:44:23;;;;;;;128.82;52.15;;;0.00;99.90;;;;;;5053519;28;20373;-78
2022/12/03 01:46:52;;;;;;;127.75;50.90;;;0.00;99.90;;;;;;5051649;28;20037;-79
2022/12/03 01:49:25;;;;;;;135.50;49.88;;;0.00;99.90;;;;;;5056547;28;20456;-78
2022/12/03 01:51:52;;;;;;;128.18;49.72;;;0.00;99.90;;;;;;5059640;28;20035;-79
2022/12/03 01:54:29;;;;;;;120.40;46.40;;;0.00;99.90;;;;;;5062695;28;20013;-78
2022/12/03 01:56:55;;;;;;;133.32;50.13;;;0.00;99.90;;;;;;5053475;28;20154;-78
2022/12/03 01:59:29;;;;;;;115.55;45.35;;;0.00;99.90;;;;;;5061827;28;20083;-78
2022/12/03 02:01:55;;;;;;;132.93;46.63;;;0.00;99.90;;;;;;5060882;28;20385;-80
2022/12/03 02:04:22;;;;;;;135.18;50.05;;;0.00;99.90;;;;;;5056006;28;20080;-79
2022/12/03 02:06:48;;;;;;;130.70;48.55;;;0.00;99.90;;;;;;5048303;28;20029;-80
2022/12/03 02:09:14;;;;;;;113.63;44.00;;;0.00;99.90;;;;;;5056283;28;20414;-80
2022/12/03 02:11:48;;;;;;;131.30;47.50;;;0.00;99.90;;;;;;5055755;28;20320;-80
2022/12/03 02:14:18;;;;;;;119.40;43.30;;;-0.10;99.90;;;;;;5052966;28;20025;-80
2022/12/03 02:16:45;;;;;;;122.93;43.90;;;0.00;99.90;;;;;;5057313;28;20036;-80
2022/12/03 02:19:26;;;;;;;127.20;46.70;;;-0.10;99.90;;;;;;5058634;28;20046;-80
2022/12/03 02:21:55;;;;;;;117.88;43.30;;;-0.10;99.90;;;;;;5054895;28;20074;-80
2022/12/03 02:24:20;;;;;;;134.90;49.50;;;-0.10;99.90;;;;;;5054868;28;20032;-80
2022/12/03 02:26:46;;;;;;;131.43;45.80;;;-0.10;99.90;;;;;;5056868;28;20032;-80
2022/12/03 02:29:12;;;;;;;120.30;44.35;;;-0.10;99.90;;;;;;5059067;28;20443;-80
2022/12/03 02:31:37;;;;;;;125.68;47.17;;;-0.10;99.90;;;;;;5048833;28;20033;-80
2022/12/03 02:34:05;;;;;;;111.20;43.55;;;-0.10;99.90;;;;;;5058279;28;20050;-80
2022/12/03 02:36:31;;;;;;;119.68;42.38;;;-0.10;99.90;;;;;;5058101;28;20060;-80
2022/12/03 02:38:57;;;;;;;125.40;43.90;;;-0.20;99.90;;;;;;5055241;28;20064;-80
2022/12/03 02:44:07;;;;;;;114.78;43.35;;;-0.10;99.90;;;;;;5063554;28;20031;-80
2022/12/03 02:46:34;;;;;;;122.22;44.50;;;-0.10;99.90;;;;;;5059693;28;20119;-80
2022/12/03 02:49:00;;;;;;;108.15;41.15;;;-0.10;99.90;;;;;;5053486;28;20025;-80
2022/12/03 02:51:26;;;;;;;92.82;37.28;;;-0.10;99.90;;;;;;5054229;28;20020;-80
2022/12/03 02:53:53;;;;;;;101.70;37.72;;;-0.10;99.90;;;;;;5057448;28;20033;-80
2022/12/03 02:56:25;;;;;;;109.30;39.95;;;-0.10;99.90;;;;;;5062770;28;20046;-81
2022/12/03 02:58:55;;;;;;;101.63;39.05;;;-0.10;99.90;;;;;;5053631;28;20189;-80
2022/12/03 03:01:21;;;;;;;95.97;37.15;;;-0.10;99.90;;;;;;5064013;28;20119;-80
2022/12/03 03:03:48;;;;;;;95.75;36.72;;;-0.10;99.90;;;;;;5057075;28;20112;-80
2022/12/03 03:06:16;;;;;;;85.18;35.13;;;-0.10;99.90;;;;;;5058364;28;20045;-80
2022/12/03 03:08:42;;;;;;;94.38;35.50;;;-0.10;99.90;;;;;;5060989;28;20036;-80
2022/12/03 03:11:08;;;;;;;86.93;33.50;;;-0.10;99.90;;;;;;5060238;28;20025;-80
2022/12/03 03:13:36;;;;;;;83.05;32.03;;;-0.10;99.90;;;;;;5058306;28;20078;-80
2022/12/03 03:16:04;;;;;;;91.00;35.50;;;-0.10;99.90;;;;;;5061369;28;20429;-80
2022/12/03 03:18:31;;;;;;;79.15;32.95;;;-0.10;99.90;;;;;;5054336;28;20111;-80
2022/12/03 03:20:58;;;;;;;85.30;32.08;;;-0.10;99.90;;;;;;5049538;28;20029;-80
2022/12/03 03:23:24;;;;;;;79.65;30.13;;;-0.10;99.90;;;;;;5048403;28;20029;-80
2022/12/03 03:26:00;;;;;;;74.53;31.77;;;-0.20;99.90;;;;;;5061843;28;20050;-80
2022/12/03 03:28:27;;;;;;;82.97;31.00;;;-0.10;99.90;;;;;;5062796;28;20021;-80
2022/12/03 03:31:00;;;;;;;78.13;29.83;;;-0.10;99.90;;;;;;5060483;28;20049;-80
2022/12/03 03:33:27;;;;;;;74.55;28.73;;;-0.10;99.90;;;;;;5057632;28;20598;-80
2022/12/03 03:35:53;;;;;;;74.72;30.95;;;-0.10;99.90;;;;;;5058820;28;20123;-80
2022/12/03 03:38:19;;;;;;;65.47;26.30;;;-0.20;99.90;;;;;;5058312;28;20025;-80
2022/12/03 03:40:47;;;;;;;66.00;26.48;;;-0.20;99.90;;;;;;5065209;28;20021;-80
2022/12/03 03:43:14;;;;;;;64.95;27.48;;;-0.20;99.90;;;;;;5063549;28;20368;-80
2022/12/03 03:45:40;;;;;;;64.35;26.17;;;-0.20;99.90;;;;;;5065355;28;20048;-80
2022/12/03 03:48:06;;;;;;;66.82;26.30;;;-0.20;99.90;;;;;;5059183;28;20025;-80
2022/12/03 03:50:31;;;;;;;75.70;27.73;;;-0.10;99.90;;;;;;5060672;28;20017;-80
2022/12/03 03:52:59;;;;;;;66.32;26.15;;;-0.20;99.90;;;;;;5059366;28;20124;-80
2022/12/03 03:55:25;;;;;;;57.70;24.35;;;-0.10;99.90;;;;;;5064208;28;20025;-80
2022/12/03 03:57:51;;;;;;;52.10;21.92;;;-0.10;99.90;;;;;;5058331;28;20017;-80
2022/12/03 04:00:17;;;;;;;46.70;21.25;;;-0.10;99.90;;;;;;5053876;28;20047;-80
2022/12/03 04:02:44;;;;;;;45.95;20.63;;;-0.20;99.90;;;;;;5064655;28;20404;-80
2022/12/03 04:05:21;;;;;;;45.55;21.70;;;-0.20;99.90;;;;;;5063000;28;20074;-80
2022/12/03 04:07:47;;;;;;;48.92;19.65;;;-0.10;99.90;;;;;;5058853;28;20454;-80
2022/12/03 04:12:58;;;;;;;45.13;20.95;;;-0.20;99.90;;;;;;5066596;28;20110;-80
2022/12/03 04:15:24;;;;;;;44.13;19.58;;;-0.10;99.90;;;;;;5056224;28;20377;-80
2022/12/03 04:20:36;;;;;;;42.92;19.20;;;-0.20;99.90;;;;;;5057610;28;20131;-80
2022/12/03 04:23:02;;;;;;;43.63;19.45;;;-0.10;99.90;;;;;;5059116;28;20053;-80
2022/12/03 04:30:59;;;;;;;40.53;19.60;;;-0.10;99.90;;;;;;5062713;28;20492;-79
2022/12/03 04:36:09;;;;;;;45.00;21.20;;;-0.20;99.90;;;;;;5055030;28;20039;-80
2022/12/03 04:38:35;;;;;;;53.22;20.83;;;-0.20;99.90;;;;;;5054601;28;20020;-80
2022/12/03 04:41:02;;;;;;;49.33;21.75;;;-0.20;99.90;;;;;;5061400;28;20024;-80
2022/12/03 04:43:32;;;;;;;47.50;20.50;;;-0.20;99.90;;;;;;5058182;28;20097;-79
2022/12/03 04:45:59;;;;;;;48.22;22.70;;;-0.20;99.90;;;;;;5061999;28;20502;-80
2022/12/03 04:48:25;;;;;;;47.83;23.58;;;-0.20;99.90;;;;;;5061907;28;20020;-80
2022/12/03 04:50:50;;;;;;;47.67;21.25;;;-0.20;99.90;;;;;;5060459;28;20476;-80
2022/12/03 04:53:16;;;;;;;46.90;20.42;;;-0.20;99.90;;;;;;5059029;28;20051;-80
2022/12/03 04:55:42;;;;;;;47.00;21.83;;;-0.20;99.90;;;;;;5064011;28;20036;-80
2022/12/03 04:58:08;;;;;;;46.55;22.27;;;-0.20;99.90;;;;;;5058141;28;20381;-80
2022/12/03 05:00:33;;;;;;;44.10;21.90;;;-0.20;99.90;;;;;;5057055;28;20045;-80
2022/12/03 05:02:59;;;;;;;49.97;23.80;;;-0.30;99.90;;;;;;5061163;28;20620;-80
2022/12/03 05:05:25;;;;;;;43.40;21.27;;;-0.20;99.90;;;;;;5058436;28;20221;-80
2022/12/03 05:07:50;;;;;;;49.65;22.75;;;-0.30;99.90;;;;;;5062930;28;20020;-80
2022/12/03 05:10:16;;;;;;;46.15;21.55;;;-0.30;99.90;;;;;;5057465;28;20028;-79
2022/12/03 05:12:41;;;;;;;40.17;20.02;;;-0.20;99.90;;;;;;5059147;28;20015;-80
2022/12/03 05:15:07;;;;;;;50.25;23.05;;;-0.20;99.90;;;;;;5057517;28;20369;-80
2022/12/03 05:17:33;;;;;;;49.13;23.80;;;-0.20;99.90;;;;;;5055045;28;20032;-80
2022/12/03 05:22:43;;;;;;;49.20;22.83;;;-0.20;99.90;;;;;;5053884;28;20059;-80
2022/12/03 05:25:09;;;;;;;51.17;23.65;;;-0.20;99.90;;;;;;5060452;28;20080;-80
2022/12/03 05:27:34;;;;;;;53.65;23.60;;;-0.20;99.90;;;;;;5057739;28;20201;-80
2022/12/03 05:30:00;;;;;;;49.67;22.80;;;-0.30;99.90;;;;;;5060047;28;20021;-80
2022/12/03 05:32:26;;;;;;;53.90;24.88;;;-0.30;99.90;;;;;;5062604;28;20021;-80
2022/12/03 05:34:51;;;;;;;57.30;24.60;;;-0.30;99.90;;;;;;5060136;28;20108;-80
2022/12/03 05:37:20;;;;;;;54.70;24.92;;;-0.30;99.90;;;;;;5059186;28;20056;-80
2022/12/03 05:39:46;;;;;;;62.63;25.55;;;-0.30;99.90;;;;;;5057563;28;20020;-80
2022/12/03 05:44:58;;;;;;;56.60;26.08;;;-0.30;99.90;;;;;;5061137;28;20067;-80
2022/12/03 05:47:23;;;;;;;60.75;25.60;;;-0.30;99.90;;;;;;5059467;28;20473;-80
2022/12/03 05:49:49;;;;;;;61.70;26.10;;;-0.40;99.90;;;;;;5055549;28;20017;-80
2022/12/03 05:52:14;;;;;;;61.90;26.58;;;-0.30;99.90;;;;;;5054385;28;20043;-80
2022/12/03 05:54:40;;;;;;;54.30;24.48;;;-0.30;99.90;;;;;;5055121;28;20051;-80
2022/12/03 05:57:05;;;;;;;55.20;25.02;;;-0.30;99.90;;;;;;5060444;28;20028;-80
2022/12/03 05:59:31;;;;;;;61.53;25.67;;;-0.30;99.90;;;;;;5052980;28;20037;-80
2022/12/03 06:01:57;;;;;;;60.88;27.02;;;-0.30;99.90;;;;;;5054105;28;20078;-80
2022/12/03 06:04:22;;;;;;;70.13;27.35;;;-0.30;99.90;;;;;;5061806;28;20027;-80
2022/12/03 06:06:48;;;;;;;57.60;25.48;;;-0.30;99.90;;;;;;5056427;28;20041;-80
2022/12/03 06:09:14;;;;;;;62.50;27.17;;;-0.30;99.90;;;;;;5064541;28;20512;-80
2022/12/03 06:11:40;;;;;;;56.85;26.77;;;-0.30;99.90;;;;;;5057737;28;20471;-80
2022/12/03 06:14:05;;;;;;;67.68;29.23;;;-0.30;99.90;;;;;;5056441;28;20020;-80
2022/12/03 06:16:31;;;;;;;62.10;27.98;;;-0.30;99.90;;;;;;5059931;28;20009;-80
2022/12/03 06:18:56;;;;;;;63.08;26.45;;;-0.30;99.90;;;;;;5058315;28;20017;-80
2022/12/03 06:21:22;;;;;;;65.05;30.35;;;-0.30;99.90;;;;;;5055111;28;20021;-80
2022/12/03 06:23:48;;;;;;;62.63;28.67;;;-0.40;99.90;;;;;;5057650;28;20542;-80
2022/12/03 06:26:13;;;;;;;68.60;29.08;;;-0.30;99.90;;;;;;5058610;28;20036;-80
2022/12/03 06:28:44;;;;;;;69.90;29.45;;;-0.30;99.90;;;;;;5055138;28;20532;-80
2022/12/03 06:31:09;;;;;;;66.95;27.40;;;-0.40;99.90;;;;;;5051701;28;20026;-80
2022/12/03 06:33:35;;;;;;;70.28;30.15;;;-0.40;99.90;;;;;;5059085;28;20035;-79
2022/12/03 06:36:01;;;;;;;68.82;31.02;;;-0.40;99.90;;;;;;5051223;28;20469;-80
2022/12/03 06:38:26;;;;;;;88.78;36.15;;;-0.30;99.90;;;;;;5055758;28;20177;-80
2022/12/03 06:40:52;;;;;;;87.63;37.50;;;-0.40;99.90;;;;;;5061432;28;20075;-85
2022/12/03 06:43:17;;;;;;;106.78;43.75;;;-0.40;99.90;;;;;;5054673;28;20535;-81
2022/12/03 06:45:43;;;;;;;96.68;38.30;;;-0.40;99.90;;;;;;5057115;28;20040;-81
2022/12/03 06:48:09;;;;;;;89.88;38.03;;;-0.40;99.90;;;;;;5056856;28;20020;-80
2022/12/03 06:50:35;;;;;;;90.85;39.10;;;-0.40;99.90;;;;;;5058183;28;20089;-80
2022/12/03 06:53:00;;;;;;;88.72;38.15;;;-0.40;99.90;;;;;;5057982;28;20029;-80
2022/12/03 06:55:29;;;;;;;84.47;36.50;;;-0.40;99.90;;;;;;5057621;28;20044;-81
2022/12/03 06:57:54;;;;;;;85.20;35.83;;;-0.40;99.90;;;;;;5058906;28;20048;-80
2022/12/03 07:00:20;;;;;;;81.82;34.70;;;-0.40;99.90;;;;;;5063324;28;20068;-81
2022/12/03 07:02:46;;;;;;;89.72;39.17;;;-0.40;99.90;;;;;;5060932;28;20209;-81
2022/12/03 07:05:11;;;;;;;91.28;38.58;;;-0.40;99.90;;;;;;5061195;28;20119;-81
2022/12/03 07:07:37;;;;;;;87.90;36.38;;;-0.40;99.90;;;;;;5051183;28;20496;-81
2022/12/03 07:10:03;;;;;;;84.57;35.10;;;-0.50;99.90;;;;;;5063750;28;20487;-80
2022/12/03 07:12:29;;;;;;;88.60;35.10;;;-0.50;99.90;;;;;;5055292;28;20420;-81
2022/12/03 07:14:54;;;;;;;89.85;36.00;;;-0.50;99.90;;;;;;5059454;28;20038;-81
2022/12/03 07:17:20;;;;;;;93.30;41.17;;;-0.50;99.90;;;;;;5061205;28;20017;-80
2022/12/03 07:19:48;;;;;;;84.03;38.30;;;-0.50;99.90;;;;;;5056006;28;20021;-81
2022/12/03 07:22:14;;;;;;;84.88;37.97;;;-0.40;99.90;;;;;;5056075;28;20077;-81
2022/12/03 07:24:39;;;;;;;86.60;38.20;;;-0.40;99.90;;;;;;5058616;28;20029;-80
2022/12/03 07:27:05;;;;;;;83.03;38.92;;;-0.40;99.90;;;;;;5059992;28;20036;-80
2022/12/03 07:29:31;;;;;;;82.20;35.67;;;-0.40;99.90;;;;;;5057234;28;20033;-80
2022/12/03 07:31:56;;;;;;;78.63;36.42;;;-0.40;99.90;;;;;;5057011;28;20027;-80
2022/12/03 07:34:22;;;;;;;83.35;34.10;;;-0.40;99.90;;;;;;5056348;28;20016;-81
2022/12/03 07:36:47;;;;;;;84.75;38.63;;;-0.40;99.90;;;;;;5057229;28;20059;-80
2022/12/03 07:39:14;;;;;;;75.50;35.05;;;-0.40;99.90;;;;;;5052998;28;20082;-81
2022/12/03 07:41:39;;;;;;;74.55;35.13;;;-0.40;99.90;;;;;;5057925;28;20032;-80
2022/12/03 07:44:05;;;;;;;82.68;33.90;;;-0.40;99.90;;;;;;5055908;28;20029;-80
2022/12/03 07:46:31;;;;;;;82.63;35.58;;;-0.40;99.90;;;;;;5062942;28;20059;-80
2022/12/03 07:48:56;;;;;;;88.90;37.65;;;-0.40;99.90;;;;;;5056292;28;20471;-81
2022/12/03 07:51:22;;;;;;;82.70;37.05;;;-0.40;99.90;;;;;;5055272;28;20033;-80
2022/12/03 07:53:48;;;;;;;86.82;37.92;;;-0.40;99.90;;;;;;5053266;28;20421;-81
2022/12/03 07:56:13;;;;;;;92.78;36.88;;;-0.40;99.90;;;;;;5056039;28;20048;-81
2022/12/03 07:58:39;;;;;;;82.82;37.47;;;-0.50;99.90;;;;;;5052563;28;20037;-80
2022/12/03 08:01:04;;;;;;;101.85;43.55;;;-0.40;99.90;;;;;;5054485;28;20485;-80
2022/12/03 08:03:30;;;;;;;102.85;43.30;;;-0.40;99.90;;;;;;5060869;28;20473;-81
2022/12/03 08:05:56;;;;;;;100.28;40.95;;;-0.40;99.90;;;;;;5061920;28;20040;-81
2022/12/03 08:08:21;;;;;;;101.93;41.90;;;-0.50;99.90;;;;;;5051452;28;20052;-81
2022/12/03 08:10:47;;;;;;;92.82;39.45;;;-0.40;99.90;;;;;;5051334;28;20071;-81
2022/12/03 08:13:15;;;;;;;90.07;39.47;;;-0.50;99.90;;;;;;5055083;28;20020;-80
2022/12/03 08:15:41;;;;;;;103.53;41.50;;;-0.50;99.90;;;;;;5056831;28;20070;-80
2022/12/03 08:18:16;;;;;;;100.00;44.00;;;-0.50;99.90;;;;;;5052507;28;20112;-81
2022/12/03 08:20:43;;;;;;;100.97;42.63;;;-0.50;99.90;;;;;;5054481;28;20036;-81
2022/12/03 08:23:13;;;;;;;95.10;40.65;;;-0.50;99.90;;;;;;5055150;28;20032;-81
2022/12/03 08:25:38;;;;;;;93.72;39.95;;;-0.40;99.90;;;;;;5060289;28;20571;-81
2022/12/03 08:28:20;;;;;;;103.95;45.92;;;-0.40;99.90;;;;;;5054791;28;20024;-81
2022/12/03 08:30:57;;;;;;;110.97;45.75;;;-0.40;99.90;;;;;;5064753;28;20052;-81
2022/12/03 08:33:25;;;;;;;100.88;43.83;;;-0.50;99.90;;;;;;5056944;28;20025;-81
2022/12/03 08:35:51;;;;;;;99.90;43.72;;;-0.50;99.90;;;;;;5059745;28;20020;-81
2022/12/03 08:38:22;;;;;;;100.65;42.95;;;-0.50;99.90;;;;;;5058408;28;20035;-81
2022/12/03 08:40:50;;;;;;;101.30;42.88;;;-0.50;99.90;;;;;;5059965;28;20045;-81
2022/12/03 08:43:24;;;;;;;97.63;43.78;;;-0.50;99.90;;;;;;5059790;28;20023;-81
2022/12/03 08:45:52;;;;;;;111.63;45.92;;;-0.50;99.90;;;;;;5060029;28;20064;-81
2022/12/03 08:48:47;;;;;;;106.68;44.72;;;-0.50;99.90;;;;;;5059496;28;20023;-81
2022/12/03 08:51:26;;;;;;;111.57;47.75;;;-0.50;99.90;;;;;;5045303;28;20397;-81
2022/12/03 08:54:12;;;;;;;120.38;51.15;;;-0.50;99.90;;;;;;5059874;28;20381;-81
2022/12/03 08:56:40;;;;;;;125.63;50.65;;;-0.50;99.90;;;;;;5063029;28;20028;-81
2022/12/03 08:59:26;;;;;;;113.88;49.70;;;-0.50;99.90;;;;;;5060178;28;20041;-81
2022/12/03 09:01:53;;;;;;;105.05;43.88;;;-0.50;99.90;;;;;;5059518;28;20039;-81
2022/12/03 09:04:29;;;;;;;114.43;50.92;;;-0.50;99.90;;;;;;5062469;28;20082;-81
2022/12/03 09:06:56;;;;;;;118.57;51.55;;;-0.50;99.90;;;;;;5056819;28;20368;-81
2022/12/03 09:09:22;;;;;;;111.38;46.95;;;-0.50;99.90;;;;;;5057779;28;20426;-81
2022/12/03 09:11:48;;;;;;;124.18;50.95;;;-0.60;99.90;;;;;;5061346;28;20031;-81
2022/12/03 09:14:16;;;;;;;116.93;49.60;;;-0.50;99.90;;;;;;5060018;28;20124;-81
2022/12/03 09:16:45;;;;;;;120.57;50.45;;;-0.50;99.90;;;;;;5062665;28;20075;-81
2022/12/03 09:19:11;;;;;;;118.93;51.97;;;-0.50;99.90;;;;;;5056335;28;20033;-81
2022/12/03 09:21:36;;;;;;;124.70;54.28;;;-0.50;99.90;;;;;;5058570;28;20354;-81
2022/12/03 09:24:02;;;;;;;125.15;53.10;;;-0.50;99.90;;;;;;5058980;28;20481;-80
2022/12/03 09:26:28;;;;;;;123.90;52.25;;;-0.50;99.90;;;;;;5062561;28;20040;-81
2022/12/03 09:28:54;;;;;;;120.70;49.35;;;-0.50;99.90;;;;;;5066581;28;20082;-81
2022/12/03 09:31:19;;;;;;;116.10;52.13;;;-0.50;99.90;;;;;;5055726;28;20029;-81
2022/12/03 09:33:45;;;;;;;137.80;56.72;;;-0.50;99.90;;;;;;5058547;28;20037;-81
2022/12/03 09:36:11;;;;;;;126.80;55.60;;;-0.50;99.90;;;;;;5059803;28;20021;-81
2022/12/03 09:38:37;;;;;;;127.35;55.85;;;-0.50;99.90;;;;;;5065277;28;20025;-81
2022/12/03 09:41:02;;;;;;;125.13;54.72;;;-0.50;99.90;;;;;;5056829;28;20035;-81
2022/12/03 09:43:31;;;;;;;134.88;55.83;;;-0.50;99.90;;;;;;5058124;28;20581;-81
2022/12/03 09:45:57;;;;;;;126.80;55.92;;;-0.50;99.90;;;;;;5058108;28;20040;-81
2022/12/03 09:48:23;;;;;;;125.88;56.22;;;-0.50;99.90;;;;;;5050304;28;20458;-80
2022/12/03 09:50:49;;;;;;;115.80;52.13;;;-0.50;99.90;;;;;;5056373;28;20036;-81
2022/12/03 09:53:19;;;;;;;111.22;51.05;;;-0.50;99.90;;;;;;5060741;28;20020;-81
2022/12/03 09:55:47;;;;;;;125.90;53.60;;;-0.40;99.90;;;;;;5057416;28;20404;-81
2022/12/03 09:58:15;;;;;;;130.93;57.28;;;-0.40;99.90;;;;;;5059269;28;20114;-81
2022/12/03 10:00:44;;;;;;;132.20;58.72;;;-0.40;99.90;;;;;;5059334;28;20032;-82
2022/12/03 10:03:14;;;;;;;126.20;55.60;;;-0.40;99.90;;;;;;5053380;28;20031;-79
2022/12/03 10:05:40;;;;;;;131.85;57.13;;;-0.40;99.90;;;;;;5049010;28;20059;-79
2022/12/03 10:08:09;;;;;;;139.52;57.95;;;-0.40;99.90;;;;;;5050801;28;20025;-79
2022/12/03 10:10:37;;;;;;;138.48;58.92;;;-0.40;99.90;;;;;;5059257;28;20473;-79
2022/12/03 10:13:04;;;;;;;139.73;59.33;;;-0.40;99.90;;;;;;5062652;28;20025;-79
2022/12/03 10:15:31;;;;;;;145.68;60.30;;;-0.30;99.90;;;;;;5067840;28;20156;-79
2022/12/03 10:17:58;;;;;;;126.53;56.55;;;-0.40;99.90;;;;;;5061847;28;20020;-79
2022/12/03 10:20:25;;;;;;;132.45;60.53;;;-0.40;99.90;;;;;;5055429;28;20024;-79
2022/12/03 10:22:51;;;;;;;138.45;60.55;;;-0.40;99.90;;;;;;5058651;28;20032;-79
2022/12/03 10:25:21;;;;;;;145.63;61.45;;;-0.40;99.90;;;;;;5053708;28;20047;-79
2022/12/03 10:28:04;;;;;;;131.07;57.05;;;-0.40;99.90;;;;;;5057548;28;20412;-79
2022/12/03 10:30:30;;;;;;;127.05;56.67;;;-0.30;99.90;;;;;;5056442;28;20474;-79
2022/12/03 10:32:57;;;;;;;128.45;57.45;;;-0.40;99.90;;;;;;5055255;28;20258;-79
2022/12/03 10:35:35;;;;;;;130.73;57.28;;;-0.30;99.90;;;;;;5052138;28;20112;-79
2022/12/03 10:38:06;;;;;;;130.48;56.88;;;-0.40;99.90;;;;;;5059044;28;20594;-79
2022/12/03 10:40:36;;;;;;;134.85;57.05;;;-0.40;99.90;;;;;;5062648;28;20551;-79
2022/12/03 10:43:17;;;;;;;138.50;58.50;;;-0.40;99.90;;;;;;5063767;28;20020;-79
2022/12/03 10:46:06;;;;;;;136.82;62.40;;;-0.30;99.90;;;;;;5061961;28;20375;-79
2022/12/03 10:48:32;;;;;;;141.63;62.95;;;-0.30;99.90;;;;;;5059194;28;20040;-79
2022/12/03 10:51:21;;;;;;;138.93;60.55;;;-0.30;99.90;;;;;;5058025;28;20026;-79
2022/12/03 10:53:48;;;;;;;132.15;58.25;;;-0.30;99.90;;;;;;5063981;28;20048;-79
2022/12/03 10:56:24;;;;;;;128.95;58.47;;;-0.30;99.90;;;;;;5056780;28;20474;-79
2022/12/03 10:58:49;;;;;;;153.80;65.55;;;-0.30;99.90;;;;;;5053918;28;20049;-79
2022/12/03 11:01:21;;;;;;;154.52;66.20;;;-0.30;99.90;;;;;;5049524;28;20479;-79
2022/12/03 11:03:47;;;;;;;139.98;59.78;;;-0.30;99.90;;;;;;5056050;28;20532;-79
2022/12/03 11:06:19;;;;;;;143.98;62.47;;;-0.40;99.90;;;;;;5056934;28;20070;-79
2022/12/03 11:08:49;;;;;;;148.00;61.85;;;-0.40;99.90;;;;;;5060143;28;20028;-79
2022/12/03 11:11:22;;;;;;;142.05;63.50;;;-0.40;99.90;;;;;;5058717;28;20089;-80
2022/12/03 11:13:51;;;;;;;137.98;61.55;;;-0.40;99.90;;;;;;5052033;28;20033;-81
2022/12/03 11:16:38;;;;;;;144.73;60.50;;;-0.40;99.90;;;;;;5054395;28;20056;-79
2022/12/03 11:19:44;;;;;;;148.13;61.20;;;-0.40;99.90;;;;;;5060157;28;20016;-81
2022/12/03 11:22:10;;;;;;;134.20;62.17;;;-0.40;99.90;;;;;;5056125;28;20039;-81
2022/12/03 11:24:38;;;;;;;140.27;59.80;;;-0.40;99.90;;;;;;5064195;28;20032;-81
2022/12/03 11:27:05;;;;;;;148.95;66.90;;;-0.40;99.90;;;;;;5056753;28;20064;-81
2022/12/03 11:29:55;;;;;;;147.38;64.25;;;-0.40;99.90;;;;;;5064971;28;20044;-81
2022/12/03 11:32:53;;;;;;;149.40;62.47;;;-0.40;99.90;;;;;;5057806;28;20025;-81
2022/12/03 11:35:22;;;;;;;134.25;60.55;;;-0.40;99.90;;;;;;5042867;28;20029;-81
2022/12/03 11:37:48;;;;;;;134.13;60.35;;;-0.40;99.90;;;;;;5054620;28;20470;-81
2022/12/03 11:40:17;;;;;;;141.85;61.65;;;-0.40;99.90;;;;;;5065112;28;20024;-81
2022/12/03 11:42:44;;;;;;;142.02;61.78;;;-0.40;99.90;;;;;;5057205;28;20027;-81
2022/12/03 11:45:22;;;;;;;145.68;63.55;;;-0.40;99.90;;;;;;5060405;28;20122;-81
2022/12/03 11:47:57;;;;;;;137.85;64.22;;;-0.40;99.90;;;;;;5064337;28;20469;-81
2022/12/03 11:50:31;;;;;;;140.20;63.33;;;-0.40;99.90;;;;;;5055395;28;20066;-80
2022/12/03 11:53:13;;;;;;;144.23;65.75;;;-0.40;99.90;;;;;;5053897;28;20435;-81
2022/12/03 11:55:47;;;;;;;148.35;64.78;;;-0.40;99.90;;;;;;5054504;28;20025;-80
2022/12/03 11:58:25;;;;;;;145.18;65.97;;;-0.40;99.90;;;;;;5062527;28;20053;-80
2022/12/03 12:00:56;;;;;;;147.48;64.28;;;-0.40;99.90;;;;;;5055443;28;20420;-80
2022/12/03 12:03:27;;;;;;;135.32;62.40;;;-0.40;99.90;;;;;;5059350;28;20016;-79
2022/12/03 12:06:02;;;;;;;142.82;63.50;;;-0.40;99.90;;;;;;5056197;28;20032;-80
2022/12/03 12:08:28;;;;;;;144.27;63.60;;;-0.40;99.90;;;;;;5062335;28;20404;-81
2022/12/03 12:10:53;;;;;;;137.45;64.97;;;-0.40;99.90;;;;;;5064075;28;20033;-81
2022/12/03 12:13:47;;;;;;;143.73;64.13;;;-0.40;99.90;;;;;;5056259;28;20119;-81
2022/12/03 12:16:52;;;;;;;147.38;65.43;;;-0.40;99.90;;;;;;5063276;28;20044;-81
2022/12/03 12:19:31;;;;;;;143.43;63.40;;;-0.30;99.90;;;;;;5060729;28;20036;-80
2022/12/03 12:22:24;;;;;;;154.02;65.15;;;-0.30;99.90;;;;;;5064735;28;20024;-80
2022/12/03 12:24:53;;;;;;;149.75;64.13;;;-0.30;99.90;;;;;;5062633;28;20036;-81
2022/12/03 12:27:21;;;;;;;145.00;63.00;;;-0.30;99.90;;;;;;5064995;28;20031;-81
2022/12/03 12:29:54;;;;;;;143.93;61.72;;;-0.30;99.90;;;;;;5063494;28;20028;-81
2022/12/03 12:32:29;;;;;;;141.15;65.43;;;-0.30;99.90;;;;;;5060266;28;20602;-80
2022/12/03 12:35:18;;;;;;;139.70;63.17;;;-0.30;99.90;;;;;;5054801;28;20017;-81
2022/12/03 12:37:56;;;;;;;149.80;63.63;;;-0.30;99.90;;;;;;5060451;28;20050;-80
2022/12/03 12:40:25;;;;;;;142.88;63.30;;;-0.30;99.90;;;;;;5061534;28;20100;-81
2022/12/03 12:43:01;;;;;;;130.85;61.88;;;-0.30;99.90;;;;;;5060866;28;20032;-80
2022/12/03 12:45:34;;;;;;;144.38;64.57;;;-0.30;99.90;;;;;;5058860;28;20500;-79
2022/12/03 12:48:27;;;;;;;142.55;63.05;;;-0.30;99.90;;;;;;5059509;28;20033;-81
2022/12/03 12:51:17;;;;;;;147.45;64.57;;;-0.30;99.90;;;;;;5065435;28;20045;-80
2022/12/03 12:53:43;;;;;;;154.57;67.20;;;-0.30;99.90;;;;;;5060071;28;20031;-80
2022/12/03 12:56:18;;;;;;;145.48;63.67;;;-0.30;99.90;;;;;;5058502;28;20048;-80